sensor_id;sensor_type;location;lat;lon;timestamp;pressure;altitude;pressure_sealevel;temperature;humidity
46886;BME280;32622;48.202;11.326;2023-05-21T00:00:41;1013.53;;;16.23;35.41
46886;BME280;32622;48.202;11.326;2023-05-21T00:02:44;1013.59;;;15.84;35.99
46886;BME280;32622;48.202;11.326;2023-05-21T00:04:47;1013.49;;;16.22;35.22
46886;BME280;32622;48.202;11.326;2023-05-21T00:06:49;1013.52;;;16.01;35.33
46886;BME280;32622;48.202;11.326;2023-05-21T00:08:52;1013.47;;;16.03;35.47
46886;BME280;32622;48.202;11.326;2023-05-21T00:10:55;1013.36;;;16.56;34.59
46886;BME280;32622;48.202;11.326;2023-05-21T00:12:58;1013.40;;;16.60;34.08
46886;BME280;32622;48.202;11.326;2023-05-21T00:15:01;1013.43;;;16.49;34.52
46886;BME280;32622;48.202;11.326;2023-05-21T00:17:04;1013.47;;;16.21;34.41
46886;BME280;32622;48.202;11.326;2023-05-21T00:19:07;1013.46;;;16.11;34.49
46886;BME280;32622;48.202;11.326;2023-05-21T00:21:10;1013.33;;;16.68;34.29
46886;BME280;32622;48.202;11.326;2023-05-21T00:23:12;1013.40;;;16.36;34.07
46886;BME280;32622;48.202;11.326;2023-05-21T00:25:15;1013.54;;;15.73;34.33
46886;BME280;32622;48.202;11.326;2023-05-21T00:27:18;1013.53;;;15.59;35.15
46886;BME280;32622;48.202;11.326;2023-05-21T00:29:21;1013.50;;;15.45;35.39
46886;BME280;32622;48.202;11.326;2023-05-21T00:31:24;1013.17;;;16.79;34.07
46886;BME280;32622;48.202;11.326;2023-05-21T00:33:27;1013.06;;;17.03;33.72
46886;BME280;32622;48.202;11.326;2023-05-21T00:35:30;1013.16;;;16.81;33.84
46886;BME280;32622;48.202;11.326;2023-05-21T00:37:33;1013.20;;;16.70;33.89
46886;BME280;32622;48.202;11.326;2023-05-21T00:39:36;1013.29;;;16.22;33.90
46886;BME280;32622;48.202;11.326;2023-05-21T00:41:39;1013.15;;;16.78;33.20
46886;BME280;32622;48.202;11.326;2023-05-21T00:43:42;1013.07;;;17.09;33.31
46886;BME280;32622;48.202;11.326;2023-05-21T00:45:45;1013.15;;;16.85;33.18
46886;BME280;32622;48.202;11.326;2023-05-21T00:47:48;1013.05;;;17.21;33.05
46886;BME280;32622;48.202;11.326;2023-05-21T00:49:52;1013.12;;;16.81;33.59
46886;BME280;32622;48.202;11.326;2023-05-21T00:51:55;1013.10;;;16.73;33.14
46886;BME280;32622;48.202;11.326;2023-05-21T00:53:58;1013.15;;;16.46;33.06
46886;BME280;32622;48.202;11.326;2023-05-21T00:56:01;1013.30;;;15.82;33.83
46886;BME280;32622;48.202;11.326;2023-05-21T00:58:05;1013.16;;;16.08;33.45
46886;BME280;32622;48.202;11.326;2023-05-21T01:00:09;1013.00;;;16.72;33.21
46886;BME280;32622;48.202;11.326;2023-05-21T01:02:12;1012.93;;;17.22;33.07
46886;BME280;32622;48.202;11.326;2023-05-21T01:04:15;1013.10;;;16.53;32.97
46886;BME280;32622;48.202;11.326;2023-05-21T01:06:18;1013.15;;;16.22;33.10
46886;BME280;32622;48.202;11.326;2023-05-21T01:08:21;1013.31;;;15.56;34.93
46886;BME280;32622;48.202;11.326;2023-05-21T01:10:24;1013.23;;;15.98;34.14
46886;BME280;32622;48.202;11.326;2023-05-21T01:12:29;1013.10;;;16.57;33.74
46886;BME280;32622;48.202;11.326;2023-05-21T01:14:34;1013.03;;;16.83;33.28
46886;BME280;32622;48.202;11.326;2023-05-21T01:16:38;1013.11;;;16.39;33.05
46886;BME280;32622;48.202;11.326;2023-05-21T01:18:41;1013.21;;;16.08;34.03
46886;BME280;32622;48.202;11.326;2023-05-21T01:20:44;1013.04;;;16.62;33.60
46886;BME280;32622;48.202;11.326;2023-05-21T01:22:51;1013.07;;;16.49;33.45
46886;BME280;32622;48.202;11.326;2023-05-21T01:24:54;1013.09;;;16.24;33.88
46886;BME280;32622;48.202;11.326;2023-05-21T01:26:59;1013.16;;;16.05;33.50
46886;BME280;32622;48.202;11.326;2023-05-21T01:29:02;1013.11;;;16.16;33.01
46886;BME280;32622;48.202;11.326;2023-05-21T01:31:18;1012.96;;;17.04;32.82
46886;BME280;32622;48.202;11.326;2023-05-21T01:33:28;1012.98;;;16.75;32.63
46886;BME280;32622;48.202;11.326;2023-05-21T01:35:36;1012.87;;;17.12;32.60
46886;BME280;32622;48.202;11.326;2023-05-21T01:37:45;1013.11;;;16.10;33.16
46886;BME280;32622;48.202;11.326;2023-05-21T01:39:54;1013.14;;;15.94;33.53
46886;BME280;32622;48.202;11.326;2023-05-21T01:41:57;1013.07;;;16.24;33.31
46886;BME280;32622;48.202;11.326;2023-05-21T01:44:03;1013.09;;;16.07;33.30
46886;BME280;32622;48.202;11.326;2023-05-21T01:46:11;1013.00;;;16.36;33.10
46886;BME280;32622;48.202;11.326;2023-05-21T01:48:16;1013.36;;;14.59;34.78
46886;BME280;32622;48.202;11.326;2023-05-21T01:50:21;1013.03;;;16.09;33.81
46886;BME280;32622;48.202;11.326;2023-05-21T01:52:24;1013.08;;;15.77;33.70
46886;BME280;32622;48.202;11.326;2023-05-21T01:54:27;1013.17;;;15.29;34.29
46886;BME280;32622;48.202;11.326;2023-05-21T01:56:30;1012.99;;;16.14;33.12
46886;BME280;32622;48.202;11.326;2023-05-21T01:58:33;1013.34;;;14.53;35.19
46886;BME280;32622;48.202;11.326;2023-05-21T02:00:36;1013.08;;;15.72;33.91
46886;BME280;32622;48.202;11.326;2023-05-21T02:02:39;1013.20;;;15.07;34.09
46886;BME280;32622;48.202;11.326;2023-05-21T02:04:42;1013.05;;;15.79;33.55
46886;BME280;32622;48.202;11.326;2023-05-21T02:06:45;1013.06;;;15.96;33.57
46886;BME280;32622;48.202;11.326;2023-05-21T02:08:48;1013.12;;;15.68;33.74
46886;BME280;32622;48.202;11.326;2023-05-21T02:10:51;1013.19;;;15.21;34.09
46886;BME280;32622;48.202;11.326;2023-05-21T02:12:53;1013.09;;;15.50;33.69
46886;BME280;32622;48.202;11.326;2023-05-21T02:14:57;1013.37;;;14.30;35.41
46886;BME280;32622;48.202;11.326;2023-05-21T02:17:00;1013.34;;;14.41;35.19
46886;BME280;32622;48.202;11.326;2023-05-21T02:19:03;1013.15;;;15.43;34.26
46886;BME280;32622;48.202;11.326;2023-05-21T02:21:06;1013.16;;;15.28;33.52
46886;BME280;32622;48.202;11.326;2023-05-21T02:23:09;1013.11;;;15.51;33.52
46886;BME280;32622;48.202;11.326;2023-05-21T02:25:13;1013.09;;;15.64;33.29
46886;BME280;32622;48.202;11.326;2023-05-21T02:27:16;1013.26;;;14.83;34.06
46886;BME280;32622;48.202;11.326;2023-05-21T02:29:19;1013.23;;;14.83;34.18
46886;BME280;32622;48.202;11.326;2023-05-21T02:31:22;1013.25;;;14.61;34.09
46886;BME280;32622;48.202;11.326;2023-05-21T02:33:25;1013.11;;;15.22;34.13
46886;BME280;32622;48.202;11.326;2023-05-21T02:35:28;1013.07;;;15.44;33.55
46886;BME280;32622;48.202;11.326;2023-05-21T02:37:31;1013.14;;;15.34;33.56
46886;BME280;32622;48.202;11.326;2023-05-21T02:39:34;1013.05;;;15.59;33.58
46886;BME280;32622;48.202;11.326;2023-05-21T02:41:37;1013.09;;;15.28;33.29
46886;BME280;32622;48.202;11.326;2023-05-21T02:43:39;1012.97;;;15.83;33.09
46886;BME280;32622;48.202;11.326;2023-05-21T02:45:43;1013.66;;;13.17;35.29
46886;BME280;32622;48.202;11.326;2023-05-21T02:47:46;1013.39;;;14.27;34.91
46886;BME280;32622;48.202;11.326;2023-05-21T02:49:50;1013.14;;;15.11;33.67
46886;BME280;32622;48.202;11.326;2023-05-21T02:51:53;1013.12;;;15.05;33.81
46886;BME280;32622;48.202;11.326;2023-05-21T02:53:56;1013.01;;;15.66;33.35
46886;BME280;32622;48.202;11.326;2023-05-21T02:55:59;1013.02;;;15.66;33.44
46886;BME280;32622;48.202;11.326;2023-05-21T02:58:02;1013.09;;;15.25;33.25
46886;BME280;32622;48.202;11.326;2023-05-21T03:00:06;1012.99;;;15.68;33.21
46886;BME280;32622;48.202;11.326;2023-05-21T03:02:09;1013.03;;;15.48;33.23
46886;BME280;32622;48.202;11.326;2023-05-21T03:04:11;1013.12;;;15.07;33.18
46886;BME280;32622;48.202;11.326;2023-05-21T03:06:15;1013.18;;;14.72;33.62
46886;BME280;32622;48.202;11.326;2023-05-21T03:08:18;1013.58;;;13.39;35.10
46886;BME280;32622;48.202;11.326;2023-05-21T03:10:21;1013.76;;;12.47;36.45
46886;BME280;32622;48.202;11.326;2023-05-21T03:12:24;1013.60;;;12.96;35.96
46886;BME280;32622;48.202;11.326;2023-05-21T03:14:27;1013.70;;;12.23;36.76
46886;BME280;32622;48.202;11.326;2023-05-21T03:16:30;1013.34;;;13.77;35.12
46886;BME280;32622;48.202;11.326;2023-05-21T03:18:33;1013.24;;;14.32;35.19
46886;BME280;32622;48.202;11.326;2023-05-21T03:20:36;1013.28;;;14.11;35.04
46886;BME280;32622;48.202;11.326;2023-05-21T03:22:39;1013.36;;;13.56;34.84
46886;BME280;32622;48.202;11.326;2023-05-21T03:24:42;1013.21;;;14.00;34.22
46886;BME280;32622;48.202;11.326;2023-05-21T03:26:45;1013.12;;;14.44;33.90
46886;BME280;32622;48.202;11.326;2023-05-21T03:28:49;1013.07;;;14.67;33.64
46886;BME280;32622;48.202;11.326;2023-05-21T03:30:51;1013.06;;;14.84;33.52
46886;BME280;32622;48.202;11.326;2023-05-21T03:32:55;1013.05;;;15.06;32.57
46886;BME280;32622;48.202;11.326;2023-05-21T03:34:58;1013.25;;;14.04;33.31
46886;BME280;32622;48.202;11.326;2023-05-21T03:37:01;1013.04;;;14.97;33.48
46886;BME280;32622;48.202;11.326;2023-05-21T03:39:04;1013.13;;;14.59;33.41
46886;BME280;32622;48.202;11.326;2023-05-21T03:41:08;1013.21;;;14.41;34.07
46886;BME280;32622;48.202;11.326;2023-05-21T03:43:11;1013.16;;;14.43;33.50
46886;BME280;32622;48.202;11.326;2023-05-21T03:45:15;1013.05;;;14.94;33.01
46886;BME280;32622;48.202;11.326;2023-05-21T03:47:18;1013.05;;;14.99;33.15
46886;BME280;32622;48.202;11.326;2023-05-21T03:49:20;1013.00;;;15.30;32.55
46886;BME280;32622;48.202;11.326;2023-05-21T03:51:24;1013.00;;;15.28;31.83
46886;BME280;32622;48.202;11.326;2023-05-21T03:53:27;1013.18;;;14.44;32.74
46886;BME280;32622;48.202;11.326;2023-05-21T03:55:30;1013.08;;;14.68;32.54
46886;BME280;32622;48.202;11.326;2023-05-21T03:57:33;1013.23;;;14.00;33.02
46886;BME280;32622;48.202;11.326;2023-05-21T03:59:35;1013.15;;;14.41;32.79
46886;BME280;32622;48.202;11.326;2023-05-21T04:01:38;1013.00;;;15.01;32.43
46886;BME280;32622;48.202;11.326;2023-05-21T04:03:41;1012.98;;;15.24;32.42
46886;BME280;32622;48.202;11.326;2023-05-21T04:05:45;1013.07;;;15.16;32.30
46886;BME280;32622;48.202;11.326;2023-05-21T04:07:48;1013.07;;;15.16;32.10
46886;BME280;32622;48.202;11.326;2023-05-21T04:09:51;1013.06;;;15.26;31.92
46886;BME280;32622;48.202;11.326;2023-05-21T04:11:54;1012.97;;;15.53;31.96
46886;BME280;32622;48.202;11.326;2023-05-21T04:13:57;1012.88;;;15.83;31.72
46886;BME280;32622;48.202;11.326;2023-05-21T04:16:00;1013.02;;;15.19;31.71
46886;BME280;32622;48.202;11.326;2023-05-21T04:18:03;1012.96;;;15.39;32.38
46886;BME280;32622;48.202;11.326;2023-05-21T04:20:07;1013.00;;;15.30;32.01
46886;BME280;32622;48.202;11.326;2023-05-21T04:22:10;1013.10;;;15.07;32.28
46886;BME280;32622;48.202;11.326;2023-05-21T04:24:13;1013.22;;;14.63;32.56
46886;BME280;32622;48.202;11.326;2023-05-21T04:26:16;1013.26;;;14.40;32.02
46886;BME280;32622;48.202;11.326;2023-05-21T04:28:19;1013.25;;;14.59;32.00
46886;BME280;32622;48.202;11.326;2023-05-21T04:30:22;1013.33;;;14.43;32.25
46886;BME280;32622;48.202;11.326;2023-05-21T04:32:25;1013.15;;;15.25;32.14
46886;BME280;32622;48.202;11.326;2023-05-21T04:34:28;1013.16;;;15.21;31.86
46886;BME280;32622;48.202;11.326;2023-05-21T04:36:31;1013.11;;;15.32;31.70
46886;BME280;32622;48.202;11.326;2023-05-21T04:38:34;1013.13;;;15.19;31.66
46886;BME280;32622;48.202;11.326;2023-05-21T04:40:36;1013.10;;;15.26;31.71
46886;BME280;32622;48.202;11.326;2023-05-21T04:42:40;1013.03;;;15.55;31.63
46886;BME280;32622;48.202;11.326;2023-05-21T04:44:42;1013.22;;;14.78;31.81
46886;BME280;32622;48.202;11.326;2023-05-21T04:46:45;1013.17;;;14.94;31.12
46886;BME280;32622;48.202;11.326;2023-05-21T04:48:48;1013.05;;;15.62;30.88
46886;BME280;32622;48.202;11.326;2023-05-21T04:50:51;1013.21;;;15.25;31.13
46886;BME280;32622;48.202;11.326;2023-05-21T04:52:54;1013.38;;;14.57;31.28
46886;BME280;32622;48.202;11.326;2023-05-21T04:54:57;1013.13;;;15.71;31.18
46886;BME280;32622;48.202;11.326;2023-05-21T04:56:59;1013.16;;;15.71;30.93
46886;BME280;32622;48.202;11.326;2023-05-21T04:59:02;1013.19;;;15.67;31.38
46886;BME280;32622;48.202;11.326;2023-05-21T05:01:05;1013.27;;;15.35;31.46
46886;BME280;32622;48.202;11.326;2023-05-21T05:03:08;1013.28;;;15.37;31.10
46886;BME280;32622;48.202;11.326;2023-05-21T05:05:11;1013.08;;;16.20;30.81
46886;BME280;32622;48.202;11.326;2023-05-21T05:07:14;1013.03;;;16.21;30.20
46886;BME280;32622;48.202;11.326;2023-05-21T05:09:17;1013.07;;;16.02;30.27
46886;BME280;32622;48.202;11.326;2023-05-21T05:11:20;1012.85;;;16.73;29.31
46886;BME280;32622;48.202;11.326;2023-05-21T05:13:23;1012.98;;;16.23;29.69
46886;BME280;32622;48.202;11.326;2023-05-21T05:15:26;1013.25;;;15.20;30.29
46886;BME280;32622;48.202;11.326;2023-05-21T05:17:29;1013.39;;;14.88;31.14
46886;BME280;32622;48.202;11.326;2023-05-21T05:19:31;1013.56;;;14.48;31.75
46886;BME280;32622;48.202;11.326;2023-05-21T05:21:34;1014.19;;;11.60;35.58
46886;BME280;32622;48.202;11.326;2023-05-21T05:23:37;1013.93;;;12.54;34.33
46886;BME280;32622;48.202;11.326;2023-05-21T05:25:40;1013.54;;;14.32;32.94
46886;BME280;32622;48.202;11.326;2023-05-21T05:27:43;1013.76;;;13.29;33.18
46886;BME280;32622;48.202;11.326;2023-05-21T05:29:46;1013.93;;;12.43;35.25
46886;BME280;32622;48.202;11.326;2023-05-21T05:31:49;1014.18;;;11.39;36.32
46886;BME280;32622;48.202;11.326;2023-05-21T05:33:56;1013.79;;;13.29;33.75
46886;BME280;32622;48.202;11.326;2023-05-21T05:35:59;1013.85;;;13.17;34.32
46886;BME280;32622;48.202;11.326;2023-05-21T05:38:02;1013.72;;;13.75;34.30
46886;BME280;32622;48.202;11.326;2023-05-21T05:40:06;1013.57;;;14.09;33.03
46886;BME280;32622;48.202;11.326;2023-05-21T05:42:09;1013.43;;;14.54;32.77
46886;BME280;32622;48.202;11.326;2023-05-21T05:44:12;1013.39;;;14.67;32.67
46886;BME280;32622;48.202;11.326;2023-05-21T05:46:16;1013.64;;;13.69;33.18
46886;BME280;32622;48.202;11.326;2023-05-21T05:48:19;1013.42;;;14.37;32.62
46886;BME280;32622;48.202;11.326;2023-05-21T05:50:23;1013.43;;;14.51;32.44
46886;BME280;32622;48.202;11.326;2023-05-21T05:52:26;1013.87;;;12.88;34.66
46886;BME280;32622;48.202;11.326;2023-05-21T05:54:29;1013.52;;;14.31;32.80
46886;BME280;32622;48.202;11.326;2023-05-21T05:56:32;1013.31;;;14.94;32.36
46886;BME280;32622;48.202;11.326;2023-05-21T05:58:35;1013.37;;;14.96;32.49
46886;BME280;32622;48.202;11.326;2023-05-21T06:00:37;1013.49;;;14.69;32.82
46886;BME280;32622;48.202;11.326;2023-05-21T06:02:41;1014.08;;;12.31;35.94
46886;BME280;32622;48.202;11.326;2023-05-21T06:04:43;1013.90;;;13.03;35.53
46886;BME280;32622;48.202;11.326;2023-05-21T06:06:46;1013.72;;;13.82;34.48
46886;BME280;32622;48.202;11.326;2023-05-21T06:08:49;1013.88;;;12.86;34.48
46886;BME280;32622;48.202;11.326;2023-05-21T06:10:52;1013.91;;;12.87;35.56
46886;BME280;32622;48.202;11.326;2023-05-21T06:12:55;1013.73;;;13.80;35.02
46886;BME280;32622;48.202;11.326;2023-05-21T06:14:58;1014.11;;;11.91;37.95
46886;BME280;32622;48.202;11.326;2023-05-21T06:17:01;1014.00;;;12.40;37.20
46886;BME280;32622;48.202;11.326;2023-05-21T06:19:04;1013.74;;;13.53;35.67
46886;BME280;32622;48.202;11.326;2023-05-21T06:21:07;1013.86;;;12.81;36.55
46886;BME280;32622;48.202;11.326;2023-05-21T06:23:10;1013.94;;;12.39;37.36
46886;BME280;32622;48.202;11.326;2023-05-21T06:25:12;1013.71;;;13.48;36.24
46886;BME280;32622;48.202;11.326;2023-05-21T06:27:16;1013.76;;;13.22;35.20
46886;BME280;32622;48.202;11.326;2023-05-21T06:29:19;1013.77;;;13.36;35.89
46886;BME280;32622;48.202;11.326;2023-05-21T06:31:21;1014.48;;;10.49;40.39
46886;BME280;32622;48.202;11.326;2023-05-21T06:33:24;1014.25;;;11.31;40.04
46886;BME280;32622;48.202;11.326;2023-05-21T06:35:27;1013.84;;;13.17;37.51
46886;BME280;32622;48.202;11.326;2023-05-21T06:37:30;1013.76;;;13.73;36.36
46886;BME280;32622;48.202;11.326;2023-05-21T06:39:33;1013.73;;;14.12;35.24
46886;BME280;32622;48.202;11.326;2023-05-21T06:41:36;1013.92;;;13.27;35.49
46886;BME280;32622;48.202;11.326;2023-05-21T06:43:39;1013.66;;;14.19;33.93
46886;BME280;32622;48.202;11.326;2023-05-21T06:45:42;1013.69;;;14.01;34.34
46886;BME280;32622;48.202;11.326;2023-05-21T06:47:44;1013.39;;;15.18;33.25
46886;BME280;32622;48.202;11.326;2023-05-21T06:49:48;1013.56;;;14.86;33.58
46886;BME280;32622;48.202;11.326;2023-05-21T06:51:51;1013.54;;;15.06;32.55
46886;BME280;32622;48.202;11.326;2023-05-21T06:53:54;1013.46;;;15.52;32.27
46886;BME280;32622;48.202;11.326;2023-05-21T06:55:56;1013.32;;;16.01;31.27
46886;BME280;32622;48.202;11.326;2023-05-21T06:57:59;1013.50;;;15.11;32.80
46886;BME280;32622;48.202;11.326;2023-05-21T07:00:03;1013.45;;;15.22;31.72
46886;BME280;32622;48.202;11.326;2023-05-21T07:02:06;1013.41;;;15.31;32.44
46886;BME280;32622;48.202;11.326;2023-05-21T07:04:09;1013.54;;;14.90;33.01
46886;BME280;32622;48.202;11.326;2023-05-21T07:06:13;1013.63;;;14.58;33.32
46886;BME280;32622;48.202;11.326;2023-05-21T07:08:17;1014.05;;;12.95;35.34
46886;BME280;32622;48.202;11.326;2023-05-21T07:10:20;1013.63;;;14.62;34.39
46886;BME280;32622;48.202;11.326;2023-05-21T07:12:23;1013.47;;;15.35;33.03
46886;BME280;32622;48.202;11.326;2023-05-21T07:14:26;1013.67;;;14.60;32.94
46886;BME280;32622;48.202;11.326;2023-05-21T07:16:29;1013.98;;;13.50;35.18
46886;BME280;32622;48.202;11.326;2023-05-21T07:18:32;1013.47;;;15.33;33.45
46886;BME280;32622;48.202;11.326;2023-05-21T07:20:35;1013.84;;;13.95;34.99
46886;BME280;32622;48.202;11.326;2023-05-21T07:22:38;1013.43;;;15.56;33.51
46886;BME280;32622;48.202;11.326;2023-05-21T07:24:41;1013.62;;;14.71;32.35
46886;BME280;32622;48.202;11.326;2023-05-21T07:26:44;1013.69;;;14.50;33.56
46886;BME280;32622;48.202;11.326;2023-05-21T07:28:47;1013.47;;;15.42;33.13
46886;BME280;32622;48.202;11.326;2023-05-21T07:30:50;1013.48;;;15.34;32.62
46886;BME280;32622;48.202;11.326;2023-05-21T07:32:52;1013.83;;;13.92;33.96
46886;BME280;32622;48.202;11.326;2023-05-21T07:34:58;1013.70;;;14.40;33.42
46886;BME280;32622;48.202;11.326;2023-05-21T07:37:01;1013.36;;;15.77;31.29
46886;BME280;32622;48.202;11.326;2023-05-21T07:39:04;1013.45;;;15.30;31.29
46886;BME280;32622;48.202;11.326;2023-05-21T07:41:08;1013.16;;;16.50;30.30
46886;BME280;32622;48.202;11.326;2023-05-21T07:43:11;1013.21;;;16.31;31.29
46886;BME280;32622;48.202;11.326;2023-05-21T07:45:14;1013.87;;;13.41;33.00
46886;BME280;32622;48.202;11.326;2023-05-21T07:47:18;1013.35;;;15.46;31.98
46886;BME280;32622;48.202;11.326;2023-05-21T07:49:21;1013.28;;;15.67;31.05
46886;BME280;32622;48.202;11.326;2023-05-21T07:51:24;1013.49;;;14.93;32.28
46886;BME280;32622;48.202;11.326;2023-05-21T07:53:27;1013.34;;;15.48;31.68
46886;BME280;32622;48.202;11.326;2023-05-21T07:55:30;1013.23;;;15.92;30.60
46886;BME280;32622;48.202;11.326;2023-05-21T07:57:32;1013.20;;;16.51;29.72
46886;BME280;32622;48.202;11.326;2023-05-21T07:59:35;1013.19;;;16.60;29.52
46886;BME280;32622;48.202;11.326;2023-05-21T08:01:38;1012.98;;;17.36;29.19
46886;BME280;32622;48.202;11.326;2023-05-21T08:03:41;1013.25;;;16.19;30.07
46886;BME280;32622;48.202;11.326;2023-05-21T08:05:44;1013.24;;;16.25;30.42
46886;BME280;32622;48.202;11.326;2023-05-21T08:07:47;1013.24;;;15.96;30.07
46886;BME280;32622;48.202;11.326;2023-05-21T08:09:50;1012.99;;;17.13;28.71
46886;BME280;32622;48.202;11.326;2023-05-21T08:11:53;1013.16;;;16.51;28.98
46886;BME280;32622;48.202;11.326;2023-05-21T08:13:56;1012.96;;;17.51;28.38
46886;BME280;32622;48.202;11.326;2023-05-21T08:15:59;1013.31;;;16.03;29.41
46886;BME280;32622;48.202;11.326;2023-05-21T08:18:02;1013.26;;;16.08;30.44
46886;BME280;32622;48.202;11.326;2023-05-21T08:20:06;1012.97;;;17.38;27.71
46886;BME280;32622;48.202;11.326;2023-05-21T08:22:09;1012.93;;;17.57;27.94
46886;BME280;32622;48.202;11.326;2023-05-21T08:24:12;1012.81;;;18.42;26.73
46886;BME280;32622;48.202;11.326;2023-05-21T08:26:15;1012.78;;;18.46;25.16
46886;BME280;32622;48.202;11.326;2023-05-21T08:28:20;1012.76;;;18.72;25.19
46886;BME280;32622;48.202;11.326;2023-05-21T08:30:23;1012.75;;;18.77;24.78
46886;BME280;32622;48.202;11.326;2023-05-21T08:32:26;1012.55;;;19.47;24.17
46886;BME280;32622;48.202;11.326;2023-05-21T08:34:34;1012.73;;;18.81;24.94
46886;BME280;32622;48.202;11.326;2023-05-21T08:36:37;1013.14;;;16.86;24.62
46886;BME280;32622;48.202;11.326;2023-05-21T08:38:40;1013.00;;;17.58;24.50
46886;BME280;32622;48.202;11.326;2023-05-21T08:40:44;1012.96;;;18.02;25.35
46886;BME280;32622;48.202;11.326;2023-05-21T08:42:47;1013.29;;;16.57;25.78
46886;BME280;32622;48.202;11.326;2023-05-21T08:44:51;1013.13;;;17.47;25.92
46886;BME280;32622;48.202;11.326;2023-05-21T08:46:56;1012.96;;;18.27;24.60
46886;BME280;32622;48.202;11.326;2023-05-21T08:49:01;1013.23;;;16.76;24.55
46886;BME280;32622;48.202;11.326;2023-05-21T08:51:04;1013.44;;;15.96;26.25
46886;BME280;32622;48.202;11.326;2023-05-21T08:53:07;1013.03;;;18.00;25.01
46886;BME280;32622;48.202;11.326;2023-05-21T08:55:11;1013.38;;;16.45;26.77
46886;BME280;32622;48.202;11.326;2023-05-21T08:57:14;1013.17;;;17.39;25.28
46886;BME280;32622;48.202;11.326;2023-05-21T08:59:20;1013.39;;;16.42;26.30
46886;BME280;32622;48.202;11.326;2023-05-21T09:01:23;1013.36;;;16.62;26.34
46886;BME280;32622;48.202;11.326;2023-05-21T09:03:28;1013.11;;;17.74;25.31
46886;BME280;32622;48.202;11.326;2023-05-21T09:05:32;1013.16;;;17.70;25.19
46886;BME280;32622;48.202;11.326;2023-05-21T09:07:41;1013.19;;;17.69;25.17
46886;BME280;32622;48.202;11.326;2023-05-21T09:09:50;1013.10;;;18.18;25.19
46886;BME280;32622;48.202;11.326;2023-05-21T09:11:55;1013.14;;;18.21;25.10
46886;BME280;32622;48.202;11.326;2023-05-21T09:13:59;1013.43;;;17.09;26.29
46886;BME280;32622;48.202;11.326;2023-05-21T09:16:03;1013.31;;;17.07;26.96
46886;BME280;32622;48.202;11.326;2023-05-21T09:18:07;1013.60;;;15.91;27.57
46886;BME280;32622;48.202;11.326;2023-05-21T09:20:12;1013.23;;;17.48;27.36
46886;BME280;32622;48.202;11.326;2023-05-21T09:22:16;1013.07;;;18.37;25.49
46886;BME280;32622;48.202;11.326;2023-05-21T09:24:21;1013.26;;;17.47;26.67
46886;BME280;32622;48.202;11.326;2023-05-21T09:26:24;1013.11;;;18.34;25.44
46886;BME280;32622;48.202;11.326;2023-05-21T09:28:28;1012.87;;;19.47;25.86
46886;BME280;32622;48.202;11.326;2023-05-21T09:30:32;1012.78;;;19.83;24.47
46886;BME280;32622;48.202;11.326;2023-05-21T09:32:35;1012.67;;;20.12;24.41
46886;BME280;32622;48.202;11.326;2023-05-21T09:34:37;1012.56;;;20.80;23.37
46886;BME280;32622;48.202;11.326;2023-05-21T09:36:40;1012.53;;;20.96;24.13
46886;BME280;32622;48.202;11.326;2023-05-21T09:38:44;1012.37;;;21.79;23.42
46886;BME280;32622;48.202;11.326;2023-05-21T09:41:46;1011.74;;;24.50;23.32
46886;BME280;32622;48.202;11.326;2023-05-21T09:43:50;1012.48;;;20.83;23.52
46886;BME280;32622;48.202;11.326;2023-05-21T09:49:23;1013.01;;;18.63;26.15
46886;BME280;32622;48.202;11.326;2023-05-21T09:51:54;1012.99;;;18.69;26.93
46886;BME280;32622;48.202;11.326;2023-05-21T09:54:00;1012.97;;;18.93;26.81
46886;BME280;32622;48.202;11.326;2023-05-21T09:56:10;1012.77;;;19.85;25.72
46886;BME280;32622;48.202;11.326;2023-05-21T09:58:16;1013.01;;;18.71;27.68
46886;BME280;32622;48.202;11.326;2023-05-21T10:00:24;1012.81;;;19.42;27.44
46886;BME280;32622;48.202;11.326;2023-05-21T10:02:31;1012.72;;;19.77;26.93
46886;BME280;32622;48.202;11.326;2023-05-21T10:04:38;1012.56;;;20.45;25.78
46886;BME280;32622;48.202;11.326;2023-05-21T10:06:43;1012.38;;;21.47;26.77
46886;BME280;32622;48.202;11.326;2023-05-21T10:08:51;1012.52;;;20.77;25.01
46886;BME280;32622;48.202;11.326;2023-05-21T10:10:55;1012.66;;;20.00;27.13
46886;BME280;32622;48.202;11.326;2023-05-21T10:13:03;1012.31;;;21.64;25.54
46886;BME280;32622;48.202;11.326;2023-05-21T10:15:11;1012.59;;;20.30;25.51
46886;BME280;32622;48.202;11.326;2023-05-21T10:17:16;1012.17;;;21.97;25.66
46886;BME280;32622;48.202;11.326;2023-05-21T10:19:21;1012.04;;;22.45;24.07
46886;BME280;32622;48.202;11.326;2023-05-21T10:21:28;1012.10;;;22.17;23.45
46886;BME280;32622;48.202;11.326;2023-05-21T10:23:35;1012.05;;;22.34;23.48
46886;BME280;32622;48.202;11.326;2023-05-21T10:25:40;1012.50;;;20.14;24.54
46886;BME280;32622;48.202;11.326;2023-05-21T10:27:45;1012.66;;;19.46;26.03
46886;BME280;32622;48.202;11.326;2023-05-21T10:29:49;1012.15;;;21.68;24.11
46886;BME280;32622;48.202;11.326;2023-05-21T10:31:53;1012.05;;;21.89;23.55
46886;BME280;32622;48.202;11.326;2023-05-21T10:33:57;1012.40;;;20.21;24.38
46886;BME280;32622;48.202;11.326;2023-05-21T10:36:05;1012.25;;;20.83;24.49
46886;BME280;32622;48.202;11.326;2023-05-21T10:38:28;1012.11;;;21.59;22.67
46886;BME280;32622;48.202;11.326;2023-05-21T10:40:48;1012.10;;;21.58;23.44
46886;BME280;32622;48.202;11.326;2023-05-21T10:59:29;1011.70;;;22.99;24.63
46886;BME280;32622;48.202;11.326;2023-05-21T11:01:37;1012.13;;;20.90;23.99
46886;BME280;32622;48.202;11.326;2023-05-21T11:03:42;1011.93;;;21.70;22.72
46886;BME280;32622;48.202;11.326;2023-05-21T11:05:52;1011.77;;;22.42;22.88
46886;BME280;32622;48.202;11.326;2023-05-21T11:07:57;1011.88;;;21.91;22.01
46886;BME280;32622;48.202;11.326;2023-05-21T11:10:29;1011.76;;;22.42;22.03
46886;BME280;32622;48.202;11.326;2023-05-21T11:12:34;1012.09;;;21.02;22.85
46886;BME280;32622;48.202;11.326;2023-05-21T11:14:39;1011.96;;;21.54;22.37
46886;BME280;32622;48.202;11.326;2023-05-21T11:16:44;1011.99;;;21.31;21.83